Terminal Aerodrome Forecast
Issued by NWS

Home | Current Version | Previous Version | Text Only | Print | Product List | Glossary On
Versions: 1 2 3 4 5 6 7 8 9 10 11 12 13 14
945
FTUS46 KSEW 052354
TAFHQM
TAF
KHQM 052354Z 0600/0624 14010KT P6SM -SHRA BKN015 BKN025 OVC040
     FM060300 06005KT P6SM -SHRASN BKN015 OVC025
     FM060600 06005KT P6SM VCSH BKN020 OVC030
     FM061600 05006KT P6SM SCT050=

USA.gov is the U.S. government's official web portal to all federal, state and local government web resources and services.